BLACK BUTTE (BLB)

Elevation: 426' · STONY CR basin · Operator: US Army Corps of Engineers

Provisional data, subject to change.
Query executed Saturday at 19:36:53   clock

Select a sensor type for a plot of data.
Note: Reservoir Flows are daily averages.

Earlier

Date RES ELE    STORAGE    RES CHG    TOC STO    ABV TOC    OUTFLOW    INFLOW    PPT INC    TEMP MN    TEMP MX    EVP PAN   
 FEET   AF   AF   AF   AF   CFS   CFS   INCHES   DEG F   DEG F   INCHES  
03/19/2015 452.58 60608 -85 86514 -25906 277 249 0.02 12 29 0.18
03/20/2015 452.54 60496 -112 87932 -27436 303 255 0.00 10 20 0.10
03/21/2015 452.51 60412 -84 89350 -28938 304 274 0.00 10 23 0.16
03/22/2015 452.18 59492 -920 90768 -31276 281 -171 0.00 9 21 0.14
03/23/2015 452.11 59299 -193 92186 -32887 260 174 0.00 8 18 0.14
03/24/2015 452.03 59078 -221 93604 -34526 239 138 0.00 10 21 0.13
03/25/2015 451.97 58912 -166 95021 -36109 228 160 0.18 9 27 0.20
03/26/2015 451.96 58885 -27 96439 -37554 205 206 0.12 11 29 0.18
03/27/2015 452.04 59105 220 97857 -38752 164 291 0.10 13 28 0.21
03/28/2015 -- -- -- -- -- -- -- -- -- -- --
03/29/2015 452.28 59770 -- 100693 -- 76 301 0.03 12 30 0.20
03/30/2015 452.45 60244 -- 102111 -- 37 290 0.00 13 28 0.19
03/31/2015 452.55 60524 --r 103529 -- 154 309 0.00 7 22 0.18
04/01/2015 452.57 60580 -- 104946 -44366 214 257 0.00 6 21 0.19
04/02/2015 452.60 60665 85 106364 -45699 220 281 0.00 10 22 0.23
04/03/2015 452.63 60749 84 107782 -47033 217 274 0.00 8 23 0.19
04/04/2015 452.67 60862 113 109203 -48338 224 294 0.00 9 20 0.16
04/05/2015 452.71 60974 112 110712 -49738 210 277 0.00 7 17 0.14
04/06/2015 452.76 61116 142 112200 -51084 189 272 0.00 2 16 0.14
04/07/2015 452.86 61398 282 113700 -52302 83 231 0.00 8 13 0.07
04/08/2015 453.12 62139 741 115200 -53061 16 400 0.00 8 17 0.14
04/09/2015 453.34 62770 631 116700 -53930 15 347 0.01 5 21 0.17
04/10/2015 453.51 63260 490 118200 -54940 15 278 0.14 7 23 0.19
04/11/2015 453.66 63695 435 119700 -56005 15 249 0.06 11 25 0.18
04/12/2015 453.81 64132 437 121200 -57068 15 255 0.07 11 29 0.23
04/13/2015 453.97 64601 -- 122700 -- 18 276 0.00 9 27 0.26
04/14/2015 454.05 64836 -- 124230 -- 167 303 0.00 7 20 0.21
04/15/2015 454.11 65013 177 125748 -60735 223 333 0.00 11 23 0.25
04/16/2015 454.15 65131 118 127230 -62099 233 313 0.02 11 28 0.25
04/17/2015 454.17 65190 59 128730 -63540 262 310 0.13 11 29 0.22
04/18/2015 -- -- -- -- -- -- -- -- -- -- --

Later | Latest

Warning! This data is preliminary and subject to revision.

Show BLB Map | Plot BLB Data | 1 Month BLB Data | Real-Time BLB Data | BLB Info